Houn Maru — JG5489 — position and weather

sailwx.info

Track history (hours):
 
Tides and Currents Weather Stations Pressure Air Temp Water Temp Dewpoint Dewpoint Depression Visibility Wind Speed Wind Dir Waves Ship Positions

Houn Maru

Last reported at 2016-Jun-30 03:29 UTC. Time now 2016-Jul-01 04:39 UTC.
Position N 34°37' E 134°57'.

Length 91 m; draft 4.5 m.

Type: Tanker. MMSI: 431101172.

Date/timePositionNaut miles runAvg speedWind from/ knotsBaromVisibWave heightAir tempDewpointWater temp
2016-Jun-30 03:29N 34°37' E 134°57'8 8.4
2016-Jun-30 02:33N 34°33' E 135°06'1110.5
2016-Jun-30 01:33N 34°23' E 135°08'1 0.8
2016-Jun-30 00:23N 34°22' E 135°09'0 0.0
2016-Jun-29 23:29N 34°22' E 135°09'0 0.0
2016-Jun-29 20:29N 34°22' E 135°09'0 0.1
2016-Jun-29 19:29N 34°22' E 135°09'0 0.0
2016-Jun-29 18:29N 34°22' E 135°09'0 0.0
2016-Jun-29 17:17N 34°22' E 135°09'0 0.0
2016-Jun-29 16:29N 34°22' E 135°09'0 0.0
2016-Jun-29 15:23N 34°22' E 135°09'0 0.0
2016-Jun-29 14:23N 34°22' E 135°09'0 0.0
2016-Jun-29 13:29N 34°22' E 135°09'0 0.0
2016-Jun-29 12:29N 34°22' E 135°09'0 0.0
2016-Jun-29 11:17N 34°22' E 135°09'0 0.0
2016-Jun-29 10:23N 34°22' E 135°09'0 0.0
2016-Jun-29 08:26N 34°22' E 135°09'4 4.9
2016-Jun-29 07:33N 34°24' E 135°14'1 0.1
2016-Jun-29 00:14N 34°25' E 135°14'2 3.5
2016-Jun-28 23:33N 34°23' E 135°12'0 0.0
2016-Jun-28 22:32N 34°23' E 135°12'0 0.0
2016-Jun-28 21:32N 34°23' E 135°12'0 0.0
2016-Jun-28 19:08N 34°23' E 135°12'0 0.0
2016-Jun-28 17:26N 34°23' E 135°12'0 0.0
2016-Jun-28 16:26N 34°23' E 135°12'0 0.0
2016-Jun-28 15:26N 34°23' E 135°12'0 0.0
2016-Jun-28 13:05N 34°23' E 135°12'2 4.1
2016-Jun-28 12:32N 34°25' E 135°11'1212.4
2016-Jun-28 11:33N 34°35' E 135°03'3 0.1
2016-Jun-27 05:32N 34°37' E 135°01'1212.5
2016-Jun-27 04:33N 34°27' E 135°09'5 1.1
2016-Jun-27 00:10N 34°25' E 135°14'2 3.7
2016-Jun-26 23:33N 34°23' E 135°13'0 0.0
2016-Jun-26 22:32N 34°23' E 135°13'0 0.0
2016-Jun-26 21:32N 34°23' E 135°13'0 0.0
2016-Jun-26 20:29N 34°23' E 135°13'0 0.0
2016-Jun-26 19:11N 34°23' E 135°13'0 0.0
2016-Jun-26 18:32N 34°23' E 135°13'0 0.0
2016-Jun-26 17:17N 34°23' E 135°13'0 0.0
2016-Jun-26 16:32N 34°23' E 135°13'0 0.0
2016-Jun-26 15:32N 34°23' E 135°13'0 0.0
2016-Jun-26 14:20N 34°23' E 135°13'0 0.0
2016-Jun-26 13:26N 34°23' E 135°13'0 0.1
2016-Jun-26 12:33N 34°23' E 135°13'1010.3
2016-Jun-26 11:33N 34°32' E 135°06'10 0.3
2016-Jun-25 04:11N 34°36' E 134°55'711.6
2016-Jun-25 03:33N 34°36' E 135°03'1312.6
2016-Jun-25 02:33N 34°33' E 135°18'11 0.5
2016-Jun-24 04:31N 34°24' E 135°12'2 0.5
2016-Jun-24 00:13N 34°25' E 135°14'2 3.4
2016-Jun-23 23:33N 34°23' E 135°13'0 0.0
2016-Jun-23 22:22N 34°23' E 135°13'0 0.1
2016-Jun-23 21:32N 34°23' E 135°13'1010.0
2016-Jun-23 20:33N 34°31' E 135°06'9 0.2
2016-Jun-22 06:29N 34°37' E 134°57'7 7.7
2016-Jun-22 05:33N 34°35' E 135°06'1211.6
2016-Jun-22 04:33N 34°25' E 135°12'2 1.9
2016-Jun-22 03:18N 34°25' E 135°14'0 0.0
2016-Jun-22 00:16N 34°25' E 135°14'2 3.1
2016-Jun-21 23:33N 34°23' E 135°13'0 0.1
2016-Jun-21 22:23N 34°23' E 135°13'2 1.9
2016-Jun-21 21:33N 34°24' E 135°11'1111.4
2016-Jun-21 20:33N 34°34' E 135°04'8 0.2
2016-Jun-20 06:31N 34°36' E 134°55'8 8.2
2016-Jun-20 05:33N 34°35' E 135°04'1110.8
2016-Jun-20 04:32N 34°26' E 135°10'  
Track history (hours):
 
Tides and Currents Weather Stations Pressure Air Temp Water Temp Dewpoint Dewpoint Depression Visibility Wind Speed Wind Dir Waves Ship Positions

Houn Maru

Last reported at 2016-Jun-30 03:29 UTC. Time now 2016-Jul-01 04:39 UTC.
Position N 34°37' E 134°57'.

Length 91 m; draft 4.5 m.

Type: Tanker. MMSI: 431101172.

Date/timePositionNaut miles runAvg speedWind from/ knotsBaromVisibWave heightAir tempDewpointWater temp
2016-Jun-30 03:29N 34°37' E 134°57'8 8.4
2016-Jun-30 02:33N 34°33' E 135°06'1110.5
2016-Jun-30 01:33N 34°23' E 135°08'1 0.8
2016-Jun-30 00:23N 34°22' E 135°09'0 0.0
2016-Jun-29 23:29N 34°22' E 135°09'0 0.0
2016-Jun-29 20:29N 34°22' E 135°09'0 0.1
2016-Jun-29 19:29N 34°22' E 135°09'0 0.0
2016-Jun-29 18:29N 34°22' E 135°09'0 0.0
2016-Jun-29 17:17N 34°22' E 135°09'0 0.0
2016-Jun-29 16:29N 34°22' E 135°09'0 0.0
2016-Jun-29 15:23N 34°22' E 135°09'0 0.0
2016-Jun-29 14:23N 34°22' E 135°09'0 0.0
2016-Jun-29 13:29N 34°22' E 135°09'0 0.0
2016-Jun-29 12:29N 34°22' E 135°09'0 0.0
2016-Jun-29 11:17N 34°22' E 135°09'0 0.0
2016-Jun-29 10:23N 34°22' E 135°09'0 0.0
2016-Jun-29 08:26N 34°22' E 135°09'4 4.9
2016-Jun-29 07:33N 34°24' E 135°14'1 0.1
2016-Jun-29 00:14N 34°25' E 135°14'2 3.5
2016-Jun-28 23:33N 34°23' E 135°12'0 0.0
2016-Jun-28 22:32N 34°23' E 135°12'0 0.0
2016-Jun-28 21:32N 34°23' E 135°12'0 0.0
2016-Jun-28 19:08N 34°23' E 135°12'0 0.0
2016-Jun-28 17:26N 34°23' E 135°12'0 0.0
2016-Jun-28 16:26N 34°23' E 135°12'0 0.0
2016-Jun-28 15:26N 34°23' E 135°12'0 0.0
2016-Jun-28 13:05N 34°23' E 135°12'2 4.1
2016-Jun-28 12:32N 34°25' E 135°11'1212.4
2016-Jun-28 11:33N 34°35' E 135°03'3 0.1
2016-Jun-27 05:32N 34°37' E 135°01'1212.5
2016-Jun-27 04:33N 34°27' E 135°09'5 1.1
2016-Jun-27 00:10N 34°25' E 135°14'2 3.7
2016-Jun-26 23:33N 34°23' E 135°13'0 0.0
2016-Jun-26 22:32N 34°23' E 135°13'0 0.0
2016-Jun-26 21:32N 34°23' E 135°13'0 0.0
2016-Jun-26 20:29N 34°23' E 135°13'0 0.0
2016-Jun-26 19:11N 34°23' E 135°13'0 0.0
2016-Jun-26 18:32N 34°23' E 135°13'0 0.0
2016-Jun-26 17:17N 34°23' E 135°13'0 0.0
2016-Jun-26 16:32N 34°23' E 135°13'0 0.0
2016-Jun-26 15:32N 34°23' E 135°13'0 0.0
2016-Jun-26 14:20N 34°23' E 135°13'0 0.0
2016-Jun-26 13:26N 34°23' E 135°13'0 0.1
2016-Jun-26 12:33N 34°23' E 135°13'1010.3
2016-Jun-26 11:33N 34°32' E 135°06'10 0.3
2016-Jun-25 04:11N 34°36' E 134°55'711.6
2016-Jun-25 03:33N 34°36' E 135°03'1312.6
2016-Jun-25 02:33N 34°33' E 135°18'11 0.5
2016-Jun-24 04:31N 34°24' E 135°12'2 0.5
2016-Jun-24 00:13N 34°25' E 135°14'2 3.4
2016-Jun-23 23:33N 34°23' E 135°13'0 0.0
2016-Jun-23 22:22N 34°23' E 135°13'0 0.1
2016-Jun-23 21:32N 34°23' E 135°13'1010.0
2016-Jun-23 20:33N 34°31' E 135°06'9 0.2
2016-Jun-22 06:29N 34°37' E 134°57'7 7.7
2016-Jun-22 05:33N 34°35' E 135°06'1211.6
2016-Jun-22 04:33N 34°25' E 135°12'2 1.9
2016-Jun-22 03:18N 34°25' E 135°14'0 0.0
2016-Jun-22 00:16N 34°25' E 135°14'2 3.1
2016-Jun-21 23:33N 34°23' E 135°13'0 0.1
2016-Jun-21 22:23N 34°23' E 135°13'2 1.9
2016-Jun-21 21:33N 34°24' E 135°11'1111.4
2016-Jun-21 20:33N 34°34' E 135°04'8 0.2
2016-Jun-20 06:31N 34°36' E 134°55'8 8.2
2016-Jun-20 05:33N 34°35' E 135°04'1110.8
2016-Jun-20 04:32N 34°26' E 135°10'  

Dump ship's entire track history